This is the latest recevied weather packets stored in our database for station/object OM8AGG-15. If no packets are shown the sender has not sent any weather packets the latest 10 day(s).
| Time | Temp. | Humidity | Pressure | Rain* | Wind** | Luminosity | Snow |
|---|---|---|---|---|---|---|---|
| 1787866442 | 18.33° C | 80% | - | - | - | - | - |
| 1787866438 | 18.33° C | 80% | 1021.6 hPa | - | - | - | - |
| 1787865538 | 18.33° C | 80% | 1021.6 hPa | - | - | - | - |
| 1787864638 | 18.33° C | 80% | 1021.5 hPa | - | - | - | - |
| 1787863738 | 18.33° C | 80% | 1021.3 hPa | - | - | - | - |
| 1787862838 | 19.44° C | 80% | 1021.4 hPa | - | - | - | - |
| 1787861938 | 19.44° C | 80% | 1021.2 hPa | - | - | - | - |
| 1787861038 | 20° C | 80% | 1021.3 hPa | - | - | - | - |
| 1787860138 | 20° C | 80% | 1021.1 hPa | - | - | - | - |
| 1787859238 | 20° C | 80% | 1021.1 hPa | - | - | - | - |
| 1787858338 | 20.56° C | 80% | 1021.2 hPa | - | - | - | - |
| 1787857437 | 20.56° C | 80% | 1021 hPa | - | - | - | - |
| 1787856537 | 21.11° C | 80% | 1021 hPa | - | - | - | - |
| 1787855637 | 21.11° C | 80% | 1020.8 hPa | - | - | - | - |
| 1787854737 | 21.67° C | 80% | 1020.8 hPa | - | - | - | - |
| 1787853837 | 21.67° C | 80% | 1020.7 hPa | - | - | - | - |
| 1787852936 | 22.22° C | 80% | 1020.6 hPa | - | - | - | - |
| 1787852036 | 22.22° C | 80% | 1020.3 hPa | - | - | - | - |
| 1787851136 | 22.78° C | 80% | 1020.3 hPa | - | - | - | - |
| 1787850236 | 23.33° C | 80% | 1020.3 hPa | - | - | - | - |
| 1787849336 | 24.44° C | 80% | 1020.2 hPa | - | - | - | - |
| 1787848436 | 24.44° C | 80% | 1020 hPa | - | - | - | - |
| 1787847536 | 25° C | 80% | 1020 hPa | - | - | - | - |
| 1787846636 | 25° C | 80% | 1020.1 hPa | - | - | - | - |
| 1787845735 | 25.56° C | 80% | 1020.1 hPa | - | - | - | - |
* Rain since midnight (hover to see other rain measurements)
** Current wind speed in m/s (hover to see current wind gust speed)